Montezuma, Ohio
Current Conditions -  °F | °C
As of 10:34 AM on Friday 24 Oct 2014 (Local Time) from KAXV Reporting Station
Clear Clear  
Wind Chill: 52°   Ceiling: Unl
Heat Index: 52°   Visibility: 10mi
Dew Point: 43°   Wind: 3mph
Humidity: 71%   Direction: 200°SSW
Pressure: 30.12"   Gusts: NA
Location:  40.49°N, 84.55°W
Report Text: KAXV 241434Z AUTO 20003KT 10SM CLR 11/06 A3012 RMK AO2
Loading
Personal Weather Stations






























Interactive Weather Map
Tropical Storm Tracking
New forecast layout! Learn more

10-Day Weather Forecast

Advertisements
Track Severe Weather on mobile